Time;durP1;ratioP1;P1;durP2;ratioP2;P2;SDS_P1;SDS_P2;PMS_P1;PMS_P2;Temp;Humidity;BMP_temperature;BMP_pressure;BME280_temperature;BME280_humidity;BME280_pressure;Samples;Min_cycle;Max_cycle;Signal;HPM_P1;HPM_P2
2022/04/18 00:00:51;;;;;;;4.10;2.33;;;6.40;91.10;;;;;;5144873;27;20733;-82
2022/04/18 00:03:17;;;;;;;3.10;2.43;;;6.60;90.90;;;;;;5139006;27;20616;-82
2022/04/18 00:05:44;;;;;;;3.03;2.83;;;6.40;90.50;;;;;;5144052;27;20644;-82
2022/04/18 00:08:11;;;;;;;3.27;3.03;;;5.90;90.60;;;;;;5143951;27;20664;-82
2022/04/18 00:10:38;;;;;;;2.80;2.50;;;6.40;91.40;;;;;;5147682;27;20656;-81
2022/04/18 00:13:05;;;;;;;2.60;2.40;;;6.40;91.50;;;;;;5147698;27;20625;-81
2022/04/18 00:15:31;;;;;;;3.53;2.63;;;6.40;92.20;;;;;;5143548;27;20963;-81
2022/04/18 00:17:59;;;;;;;2.80;2.60;;;6.20;92.50;;;;;;5142966;27;20617;-81
2022/04/18 00:20:26;;;;;;;2.70;2.50;;;5.80;92.00;;;;;;5142947;27;20656;-82
2022/04/18 00:22:53;;;;;;;2.70;2.50;;;6.30;93.10;;;;;;5136416;27;20652;-82
2022/04/18 00:25:20;;;;;;;4.00;2.57;;;5.70;93.00;;;;;;5144340;27;20624;-82
2022/04/18 00:27:46;;;;;;;3.40;2.93;;;6.20;93.20;;;;;;5141016;27;20658;-83
2022/04/18 00:30:13;;;;;;;2.57;2.37;;;5.90;93.60;;;;;;5146506;27;20652;-82
2022/04/18 00:32:40;;;;;;;2.53;2.37;;;6.40;93.70;;;;;;5142078;27;20634;-81
2022/04/18 00:35:09;;;;;;;2.73;2.53;;;6.00;93.50;;;;;;5146891;27;20629;-81
2022/04/18 00:37:39;;;;;;;3.70;3.40;;;6.10;94.70;;;;;;5140341;27;20636;-81
2022/04/18 00:40:08;;;;;;;2.90;2.70;;;5.80;95.10;;;;;;5144326;27;20779;-82
2022/04/18 00:42:35;;;;;;;2.47;2.33;;;5.90;94.90;;;;;;5142931;27;20632;-81
2022/04/18 00:45:02;;;;;;;2.97;2.50;;;6.00;95.20;;;;;;5145477;27;20613;-83
2022/04/18 00:47:29;;;;;;;2.90;2.70;;;6.20;95.50;;;;;;5138256;27;20628;-83
2022/04/18 00:49:55;;;;;;;3.10;2.80;;;6.00;95.60;;;;;;5135609;27;20650;-83
2022/04/18 00:52:25;;;;;;;3.73;2.47;;;6.20;95.70;;;;;;5141714;27;20621;-83
2022/04/18 00:54:54;;;;;;;2.60;2.40;;;5.50;96.10;;;;;;5141463;27;20621;-83
2022/04/18 00:57:22;;;;;;;3.30;3.07;;;6.00;96.40;;;;;;5140645;27;21104;-81
2022/04/18 00:59:48;;;;;;;4.33;3.30;;;5.70;96.50;;;;;;5142137;27;20649;-81
2022/04/18 01:02:17;;;;;;;3.10;2.40;;;6.00;97.50;;;;;;5134845;27;20629;-81
2022/04/18 01:04:44;;;;;;;3.70;2.87;;;6.10;97.30;;;;;;5147166;27;20625;-81
2022/04/18 01:07:11;;;;;;;3.50;2.77;;;5.90;97.90;;;;;;5142903;27;20625;-81
2022/04/18 01:09:39;;;;;;;3.43;3.13;;;5.80;97.70;;;;;;5139299;27;20686;-81
2022/04/18 01:12:07;;;;;;;3.10;2.80;;;5.80;97.60;;;;;;5144087;27;20628;-81
2022/04/18 01:14:33;;;;;;;2.50;2.33;;;5.90;97.00;;;;;;5144672;27;20695;-81
2022/04/18 01:17:00;;;;;;;2.53;2.33;;;5.50;97.10;;;;;;5142385;27;20630;-81
2022/04/18 01:19:27;;;;;;;3.03;2.73;;;5.90;97.40;;;;;;5140724;27;20682;-81
2022/04/18 01:21:55;;;;;;;3.13;2.90;;;5.90;98.20;;;;;;5137921;27;20656;-81
2022/04/18 01:29:51;;;;;;;3.10;2.90;;;5.60;99.50;;;;;;5142451;27;20679;-82
2022/04/18 01:32:18;;;;;;;2.57;2.33;;;5.20;99.60;;;;;;5144209;27;20648;-82
2022/04/18 01:34:44;;;;;;;3.30;3.00;;;5.60;99.90;;;;;;5139146;27;21007;-82
2022/04/18 01:37:13;;;;;;;3.00;2.80;;;5.20;99.90;;;;;;5142306;27;20627;-82
2022/04/18 01:39:39;;;;;;;3.17;2.97;;;5.60;99.90;;;;;;5142373;27;20638;-81
2022/04/18 01:42:06;;;;;;;3.23;2.93;;;5.70;99.90;;;;;;5138637;27;20622;-82
2022/04/18 01:44:33;;;;;;;4.67;3.00;;;5.70;99.90;;;;;;5140599;27;20630;-81
2022/04/18 01:47:00;;;;;;;4.73;3.40;;;5.40;99.90;;;;;;5146889;27;21098;-82
2022/04/18 01:49:27;;;;;;;3.27;2.90;;;5.70;99.90;;;;;;5143003;27;20664;-82
2022/04/18 01:51:53;;;;;;;3.77;3.53;;;5.20;99.90;;;;;;5142657;27;20700;-82
2022/04/18 01:54:21;;;;;;;3.90;3.43;;;5.40;99.90;;;;;;5145663;27;21107;-82
2022/04/18 01:56:49;;;;;;;3.10;2.90;;;5.50;99.90;;;;;;5140985;27;20638;-81
2022/04/18 01:59:16;;;;;;;3.43;3.13;;;5.10;99.90;;;;;;5139016;27;20628;-82
2022/04/18 02:01:43;;;;;;;4.30;3.47;;;5.40;99.90;;;;;;5136740;27;20642;-81
2022/04/18 02:04:09;;;;;;;3.60;3.30;;;5.40;99.90;;;;;;5144562;27;20633;-82
2022/04/18 02:06:36;;;;;;;4.77;3.20;;;5.50;99.90;;;;;;5141115;27;20628;-82
2022/04/18 02:09:03;;;;;;;3.27;2.97;;;4.90;99.90;;;;;;5136791;27;21286;-82
2022/04/18 02:11:31;;;;;;;4.83;3.27;;;5.20;99.90;;;;;;5143257;27;20661;-82
2022/04/18 02:13:58;;;;;;;3.70;3.37;;;5.10;99.90;;;;;;5139404;27;20619;-82
2022/04/18 02:16:28;;;;;;;4.77;2.90;;;5.30;99.90;;;;;;5140955;27;21256;-82
2022/04/18 02:18:55;;;;;;;4.20;3.90;;;5.00;99.90;;;;;;5136507;27;20620;-82
2022/04/18 02:21:21;;;;;;;3.50;3.30;;;4.90;99.90;;;;;;5137905;27;21003;-82
2022/04/18 02:23:48;;;;;;;3.40;3.20;;;5.30;99.90;;;;;;5141535;27;20982;-82
2022/04/18 02:26:15;;;;;;;3.53;3.30;;;5.20;99.90;;;;;;5142490;27;20636;-82
2022/04/18 02:28:43;;;;;;;4.60;3.47;;;5.00;99.90;;;;;;5132593;27;20658;-81
2022/04/18 02:31:10;;;;;;;3.80;3.40;;;4.70;99.90;;;;;;5143392;27;20661;-82
2022/04/18 02:33:36;;;;;;;3.30;3.10;;;5.20;99.90;;;;;;5142037;27;20623;-82
2022/04/18 02:36:03;;;;;;;3.77;3.47;;;4.80;99.90;;;;;;5144720;27;20630;-81
2022/04/18 02:38:30;;;;;;;3.10;2.80;;;5.00;99.90;;;;;;5139292;27;20746;-81
2022/04/18 02:40:56;;;;;;;4.07;3.47;;;4.60;99.90;;;;;;5145857;27;20666;-81
2022/04/18 02:43:23;;;;;;;3.70;3.40;;;4.90;99.90;;;;;;5139109;27;20636;-81
2022/04/18 02:45:52;;;;;;;3.30;3.00;;;4.90;99.90;;;;;;5142055;27;20630;-81
2022/04/18 02:48:19;;;;;;;3.33;3.03;;;4.90;99.90;;;;;;5131649;27;20916;-81
2022/04/18 02:50:45;;;;;;;3.40;3.10;;;4.60;99.90;;;;;;5135624;27;20656;-81
2022/04/18 02:53:12;;;;;;;3.10;2.80;;;4.90;99.90;;;;;;5139824;27;20664;-81
2022/04/18 02:55:39;;;;;;;3.80;3.13;;;4.90;99.90;;;;;;5137151;27;20640;-81
2022/04/18 02:58:05;;;;;;;3.10;2.77;;;4.80;99.90;;;;;;5139298;27;20645;-81
2022/04/18 03:00:32;;;;;;;4.63;3.00;;;4.40;99.90;;;;;;5136706;27;20660;-81
2022/04/18 03:03:00;;;;;;;3.50;3.30;;;4.70;99.90;;;;;;5136098;27;20616;-82
2022/04/18 03:05:27;;;;;;;3.20;2.80;;;4.50;99.90;;;;;;5143171;27;21117;-81
2022/04/18 03:07:54;;;;;;;2.97;2.67;;;4.50;99.90;;;;;;5138727;27;20639;-81
2022/04/18 03:11:02;;;;;;;2.87;2.67;;;4.70;99.90;;;;;;5142725;27;20680;-81
2022/04/18 03:13:08;;;;;;;2.93;2.73;;;4.60;99.90;;;;;;5142041;27;20620;-81
2022/04/18 03:15:35;;;;;;;3.10;2.80;;;4.50;99.90;;;;;;5138378;27;20987;-81
2022/04/18 03:18:03;;;;;;;3.60;3.30;;;4.70;99.90;;;;;;5140954;27;20843;-82
2022/04/18 03:20:29;;;;;;;3.63;3.33;;;4.80;99.90;;;;;;5142445;27;20691;-82
2022/04/18 03:22:56;;;;;;;3.10;2.83;;;4.10;99.90;;;;;;5127320;27;20657;-81
2022/04/18 03:25:23;;;;;;;4.50;3.07;;;4.50;99.90;;;;;;5139719;27;20632;-82
2022/04/18 03:27:50;;;;;;;3.90;3.20;;;4.70;99.90;;;;;;5141238;27;21278;-82
2022/04/18 03:30:16;;;;;;;2.97;2.77;;;4.40;99.90;;;;;;5140155;27;20675;-82
2022/04/18 03:32:43;;;;;;;3.57;3.27;;;4.40;99.90;;;;;;5138109;27;20616;-82
2022/04/18 03:35:11;;;;;;;4.13;3.20;;;4.50;99.90;;;;;;5134785;27;20629;-83
2022/04/18 03:40:22;;;;;;;3.07;2.87;;;4.50;99.90;;;;;;5140415;27;20646;-82
2022/04/18 03:42:49;;;;;;;2.90;2.70;;;4.20;99.90;;;;;;5138710;27;20636;-82
2022/04/18 03:45:16;;;;;;;3.60;3.30;;;4.20;99.90;;;;;;5138608;27;21242;-82
2022/04/18 03:47:42;;;;;;;3.60;3.30;;;3.80;99.90;;;;;;5139832;27;20625;-82
2022/04/18 03:50:11;;;;;;;4.00;3.60;;;4.30;99.90;;;;;;5144279;27;20680;-82
2022/04/18 03:52:37;;;;;;;5.70;3.00;;;4.20;99.90;;;;;;5138969;27;20628;-82
2022/04/18 03:55:05;;;;;;;3.13;2.90;;;4.30;99.90;;;;;;5138792;27;20625;-82
2022/04/18 03:57:32;;;;;;;2.80;2.60;;;4.30;99.90;;;;;;5140896;27;20636;-82
2022/04/18 04:00:01;;;;;;;3.30;3.00;;;3.70;99.90;;;;;;5142832;27;21224;-82
2022/04/18 04:02:28;;;;;;;3.10;2.90;;;3.80;99.90;;;;;;5138511;27;21185;-82
2022/04/18 04:04:55;;;;;;;3.07;2.87;;;4.20;99.90;;;;;;5144269;27;20631;-82
2022/04/18 04:07:24;;;;;;;3.30;3.00;;;3.90;99.90;;;;;;5142318;27;20642;-82
2022/04/18 04:09:53;;;;;;;3.80;3.43;;;4.00;99.90;;;;;;5136943;27;20683;-82
2022/04/18 04:12:23;;;;;;;3.60;3.30;;;4.20;99.90;;;;;;5146078;27;20627;-81
2022/04/18 04:14:51;;;;;;;3.80;3.50;;;3.90;99.90;;;;;;5142151;27;20666;-82
2022/04/18 04:17:18;;;;;;;4.90;3.53;;;4.00;99.90;;;;;;5138533;27;20675;-82
2022/04/18 04:19:45;;;;;;;4.80;4.40;;;4.10;99.90;;;;;;5143188;27;21269;-82
2022/04/18 04:22:12;;;;;;;4.40;4.00;;;4.00;99.90;;;;;;5143717;27;20624;-82
2022/04/18 04:24:40;;;;;;;4.43;4.00;;;3.80;99.90;;;;;;5135212;27;20682;-82
2022/04/18 04:27:07;;;;;;;3.80;3.50;;;3.90;99.90;;;;;;5141867;27;20708;-82
2022/04/18 04:29:33;;;;;;;4.17;3.87;;;3.80;99.90;;;;;;5137340;27;20676;-81
2022/04/18 04:32:00;;;;;;;3.47;3.17;;;3.80;99.90;;;;;;5143309;27;20625;-82
2022/04/18 04:34:27;;;;;;;3.83;3.40;;;3.80;99.90;;;;;;5138820;27;21201;-82
2022/04/18 04:36:54;;;;;;;3.40;3.10;;;4.00;99.90;;;;;;5149293;27;20631;-82
2022/04/18 04:39:20;;;;;;;4.07;3.30;;;3.90;99.90;;;;;;5143305;27;20622;-83
2022/04/18 04:41:48;;;;;;;2.60;2.40;;;3.70;99.90;;;;;;5142468;27;20623;-83
2022/04/18 04:44:15;;;;;;;3.57;3.27;;;4.00;99.90;;;;;;5141954;27;20626;-83
2022/04/18 04:46:43;;;;;;;3.33;3.10;;;4.00;99.90;;;;;;5142198;27;20634;-83
2022/04/18 04:49:12;;;;;;;3.90;3.33;;;4.20;99.90;;;;;;5139642;27;20670;-83
2022/04/18 04:51:39;;;;;;;3.40;3.10;;;3.70;99.90;;;;;;5141620;27;21128;-83
2022/04/18 04:54:05;;;;;;;3.57;3.27;;;4.20;99.90;;;;;;5146217;27;20685;-83
2022/04/18 04:56:32;;;;;;;5.37;3.97;;;4.40;99.90;;;;;;5138418;27;21117;-83
2022/04/18 04:59:03;;;;;;;2.97;2.67;;;4.30;99.90;;;;;;5143541;27;20639;-81
2022/04/18 05:01:30;;;;;;;4.90;3.83;;;4.20;99.90;;;;;;5131675;27;21078;-82
2022/04/18 05:03:56;;;;;;;9.23;8.53;;;3.90;99.90;;;;;;5142281;27;20660;-81
2022/04/18 05:06:23;;;;;;;7.20;6.50;;;4.20;99.90;;;;;;5145740;27;21000;-81
2022/04/18 05:08:50;;;;;;;5.03;4.60;;;4.20;99.90;;;;;;5143134;27;20619;-81
2022/04/18 05:11:17;;;;;;;4.60;4.30;;;4.10;99.90;;;;;;5140536;27;20697;-81
2022/04/18 05:13:43;;;;;;;5.10;4.70;;;4.00;99.90;;;;;;5133097;27;20980;-81
2022/04/18 05:16:11;;;;;;;7.57;5.77;;;4.20;99.90;;;;;;5143198;27;20623;-81
2022/04/18 05:18:38;;;;;;;6.33;5.40;;;4.20;99.90;;;;;;5138111;27;20622;-81
2022/04/18 05:21:05;;;;;;;4.73;4.33;;;4.00;99.90;;;;;;5144258;27;21005;-82
2022/04/18 05:23:32;;;;;;;5.40;4.90;;;4.00;99.90;;;;;;5138665;27;20627;-81
2022/04/18 05:25:58;;;;;;;5.20;4.77;;;4.30;99.90;;;;;;5143850;27;21188;-82
2022/04/18 05:28:25;;;;;;;5.10;4.70;;;4.10;99.90;;;;;;5140692;27;20674;-82
2022/04/18 05:30:52;;;;;;;4.30;4.00;;;4.40;99.90;;;;;;5143925;27;20680;-81
2022/04/18 05:33:21;;;;;;;5.50;5.10;;;4.40;99.90;;;;;;5145784;27;20622;-82
2022/04/18 05:35:48;;;;;;;5.43;5.03;;;4.40;99.90;;;;;;5143810;27;20615;-82
2022/04/18 05:38:14;;;;;;;5.43;4.93;;;4.40;99.90;;;;;;5143943;27;20709;-82
2022/04/18 05:40:41;;;;;;;5.40;5.00;;;4.60;99.90;;;;;;5142496;27;20963;-83
2022/04/18 05:43:09;;;;;;;5.23;4.83;;;4.60;99.90;;;;;;5144482;27;20619;-82
2022/04/18 05:45:37;;;;;;;4.87;4.57;;;4.70;99.90;;;;;;5147196;27;20674;-82
2022/04/18 05:48:05;;;;;;;5.00;4.70;;;4.30;99.90;;;;;;5140151;27;20740;-81
2022/04/18 05:50:33;;;;;;;5.70;5.30;;;5.00;99.90;;;;;;5139438;27;20667;-81
2022/04/18 05:53:00;;;;;;;5.93;5.50;;;5.00;99.90;;;;;;5146055;27;20634;-81
2022/04/18 05:55:26;;;;;;;5.50;5.00;;;4.80;99.90;;;;;;5143217;27;20631;-81
2022/04/18 05:57:53;;;;;;;6.13;5.73;;;5.20;99.90;;;;;;5145379;27;21325;-82
2022/04/18 06:00:20;;;;;;;9.70;7.97;;;5.40;99.90;;;;;;5143705;27;21061;-81
2022/04/18 06:02:48;;;;;;;5.37;4.97;;;5.40;99.90;;;;;;5144989;27;20657;-83
2022/04/18 06:05:14;;;;;;;6.00;5.50;;;5.20;99.90;;;;;;5142029;27;20681;-82
2022/04/18 06:07:45;;;;;;;5.87;5.30;;;5.30;99.90;;;;;;5141853;27;20622;-82
2022/04/18 06:10:11;;;;;;;5.97;5.37;;;5.80;99.90;;;;;;5141009;27;20733;-82
2022/04/18 06:12:38;;;;;;;5.00;4.57;;;5.30;99.90;;;;;;5139507;27;20769;-82
2022/04/18 06:15:06;;;;;;;5.60;5.17;;;5.60;99.90;;;;;;5146737;27;20645;-81
2022/04/18 06:17:33;;;;;;;4.80;4.50;;;6.10;99.90;;;;;;5139785;27;20643;-82
2022/04/18 06:19:59;;;;;;;5.87;5.37;;;6.20;99.90;;;;;;5146374;27;21025;-81
2022/04/18 06:22:26;;;;;;;5.57;5.00;;;6.30;99.90;;;;;;5147103;27;20993;-81
2022/04/18 06:24:54;;;;;;;4.67;4.27;;;6.10;99.90;;;;;;5137626;27;20630;-83
2022/04/18 06:27:22;;;;;;;7.87;7.17;;;6.70;99.90;;;;;;5136657;27;20649;-83
2022/04/18 06:29:48;;;;;;;4.40;4.10;;;6.60;99.90;;;;;;5138563;27;20678;-83
2022/04/18 06:32:16;;;;;;;5.97;4.60;;;6.60;99.90;;;;;;5143285;27;21121;-83
2022/04/18 06:34:43;;;;;;;4.47;4.07;;;7.00;99.90;;;;;;5145067;27;21192;-82
2022/04/18 06:37:10;;;;;;;5.10;4.60;;;6.90;99.80;;;;;;5138616;27;20637;-83
2022/04/18 06:39:37;;;;;;;5.60;4.43;;;7.20;99.40;;;;;;5136564;27;20649;-83
2022/04/18 06:42:06;;;;;;;4.40;4.00;;;7.10;99.20;;;;;;5146159;27;20702;-81
2022/04/18 06:44:33;;;;;;;5.27;4.40;;;7.50;99.00;;;;;;5142585;27;20636;-82
2022/04/18 06:46:59;;;;;;;4.60;4.20;;;7.80;98.70;;;;;;5139673;27;20637;-82
2022/04/18 06:49:26;;;;;;;3.53;3.33;;;7.60;98.60;;;;;;5145445;27;20613;-83
2022/04/18 06:51:53;;;;;;;4.40;4.10;;;7.60;98.00;;;;;;5142407;27;20613;-82
2022/04/18 06:54:20;;;;;;;4.23;3.93;;;7.70;97.10;;;;;;5142553;27;20629;-82
2022/04/18 06:57:00;;;;;;;4.27;3.87;;;7.80;96.40;;;;;;5142300;27;20628;-82
2022/04/18 06:59:29;;;;;;;4.83;3.63;;;8.50;96.30;;;;;;5137829;27;20727;-82
2022/04/18 07:01:57;;;;;;;5.10;4.60;;;8.30;96.00;;;;;;5141680;27;21226;-82
2022/04/18 07:04:24;;;;;;;4.73;4.40;;;8.70;95.80;;;;;;5141569;27;20634;-82
2022/04/18 07:06:51;;;;;;;5.80;4.20;;;8.80;95.70;;;;;;5139854;27;21056;-81
2022/04/18 07:09:18;;;;;;;4.73;4.10;;;8.90;95.80;;;;;;5143237;27;20633;-83
2022/04/18 07:11:45;;;;;;;4.47;4.07;;;8.90;95.60;;;;;;5142013;27;20677;-81
2022/04/18 07:14:12;;;;;;;5.07;4.67;;;9.20;94.80;;;;;;5144575;27;20984;-82
2022/04/18 07:16:41;;;;;;;5.27;4.03;;;9.40;94.60;;;;;;5141021;27;20744;-82
2022/04/18 07:19:08;;;;;;;4.90;4.40;;;9.20;93.60;;;;;;5145065;27;20616;-83
2022/04/18 07:21:34;;;;;;;4.73;4.13;;;9.40;93.20;;;;;;5141470;27;21336;-82
2022/04/18 07:24:01;;;;;;;4.80;4.40;;;9.70;92.80;;;;;;5139893;27;20616;-83
2022/04/18 07:26:28;;;;;;;6.70;5.50;;;9.40;92.50;;;;;;5141212;27;20621;-83
2022/04/18 07:28:55;;;;;;;8.10;6.23;;;10.00;91.30;;;;;;5141202;27;21160;-83
2022/04/18 07:31:21;;;;;;;5.23;3.97;;;9.80;91.10;;;;;;5144133;27;20715;-83
2022/04/18 07:33:50;;;;;;;4.57;4.17;;;10.30;90.60;;;;;;5138999;27;21001;-81
2022/04/18 07:36:16;;;;;;;4.60;4.20;;;10.20;90.00;;;;;;5137332;27;20621;-81
2022/04/18 07:38:52;;;;;;;5.00;4.60;;;9.90;90.10;;;;;;5142453;27;21022;-81
2022/04/18 07:41:22;;;;;;;4.30;3.90;;;10.10;89.00;;;;;;5144617;27;20644;-81
2022/04/18 07:43:49;;;;;;;4.73;4.30;;;10.50;88.50;;;;;;5141396;27;20620;-81
2022/04/18 07:46:16;;;;;;;8.20;5.93;;;10.20;87.00;;;;;;5140088;27;20634;-81
2022/04/18 07:48:43;;;;;;;4.50;4.10;;;11.00;87.90;;;;;;5143131;27;20625;-81
2022/04/18 07:53:56;;;;;;;4.90;4.40;;;11.00;86.00;;;;;;5139571;27;20604;-82
2022/04/18 07:56:23;;;;;;;3.40;3.20;;;11.10;85.30;;;;;;5139333;27;20637;-82
2022/04/18 07:58:50;;;;;;;4.90;4.33;;;11.20;85.10;;;;;;5140083;27;20648;-82
2022/04/18 08:01:17;;;;;;;4.33;3.93;;;11.30;84.40;;;;;;5140570;27;20740;-83
2022/04/18 08:03:44;;;;;;;5.33;3.50;;;11.40;84.30;;;;;;5135539;27;20636;-82
2022/04/18 08:06:12;;;;;;;3.70;3.37;;;11.50;83.50;;;;;;5143134;27;20992;-82
2022/04/18 08:08:40;;;;;;;5.20;3.90;;;11.60;83.40;;;;;;5138214;27;20602;-83
2022/04/18 08:11:11;;;;;;;3.37;3.07;;;11.70;83.10;;;;;;5145358;27;20696;-82
2022/04/18 08:13:39;;;;;;;4.00;3.70;;;11.90;82.80;;;;;;5142868;27;20618;-82
2022/04/18 08:16:06;;;;;;;8.33;6.37;;;12.00;82.20;;;;;;5149713;27;20744;-83
2022/04/18 08:18:36;;;;;;;4.87;4.37;;;12.20;81.20;;;;;;5149251;27;20641;-82
2022/04/18 08:21:03;;;;;;;5.00;4.00;;;12.20;80.40;;;;;;5141743;27;20677;-83
2022/04/18 08:23:31;;;;;;;5.03;4.27;;;12.30;79.90;;;;;;5145939;27;20633;-82
2022/04/18 08:25:58;;;;;;;4.43;4.03;;;12.40;79.70;;;;;;5146293;27;21037;-82
2022/04/18 08:28:25;;;;;;;3.77;3.33;;;12.40;79.20;;;;;;5144166;27;21111;-82
2022/04/18 08:30:51;;;;;;;4.07;3.33;;;12.60;79.00;;;;;;5143131;27;20680;-81
2022/04/18 08:33:18;;;;;;;4.10;3.70;;;12.80;78.50;;;;;;5146780;27;20705;-82
2022/04/18 08:35:45;;;;;;;4.93;3.67;;;12.80;77.30;;;;;;5141020;27;20643;-82
2022/04/18 08:38:12;;;;;;;3.90;3.33;;;13.00;77.80;;;;;;5145338;27;20644;-82
2022/04/18 08:40:42;;;;;;;4.27;3.87;;;13.20;78.10;;;;;;5143112;27;20688;-82
2022/04/18 08:43:09;;;;;;;3.67;3.37;;;13.20;75.60;;;;;;5142635;27;20694;-82
2022/04/18 08:45:38;;;;;;;6.13;4.20;;;13.30;75.10;;;;;;5146336;27;20626;-82
2022/04/18 08:53:36;;;;;;;2.70;2.50;;;13.40;73.10;;;;;;5143638;27;20989;-82
2022/04/18 08:56:05;;;;;;;5.37;4.43;;;13.50;72.20;;;;;;5142002;27;20634;-82
2022/04/18 08:58:32;;;;;;;3.07;2.87;;;13.50;70.40;;;;;;5142770;27;20775;-82
2022/04/18 09:01:01;;;;;;;3.23;2.93;;;13.60;70.20;;;;;;5147834;27;21600;-82
2022/04/18 09:03:28;;;;;;;3.83;3.40;;;13.70;69.90;;;;;;5145924;27;20633;-82
2022/04/18 09:06:04;;;;;;;2.90;2.33;;;13.80;70.10;;;;;;5142755;27;20665;-82
2022/04/18 09:08:35;;;;;;;3.93;3.30;;;14.00;68.90;;;;;;5147097;27;20635;-82
2022/04/18 09:11:01;;;;;;;3.23;2.93;;;14.00;67.60;;;;;;5140817;27;20940;-82
2022/04/18 09:13:30;;;;;;;6.10;3.17;;;14.10;68.40;;;;;;5142944;27;20632;-82
2022/04/18 09:15:57;;;;;;;3.50;2.60;;;14.30;69.90;;;;;;5146002;27;20701;-83
2022/04/18 09:18:25;;;;;;;3.50;3.20;;;14.20;67.50;;;;;;5144390;27;21052;-83
2022/04/18 09:20:53;;;;;;;5.03;3.40;;;14.40;69.20;;;;;;5141095;27;20723;-82
2022/04/18 09:23:22;;;;;;;3.00;2.77;;;14.50;68.40;;;;;;5138394;27;21218;-83
2022/04/18 09:25:53;;;;;;;2.73;2.53;;;14.70;68.90;;;;;;5140821;27;20637;-83
2022/04/18 09:28:24;;;;;;;4.70;3.23;;;14.90;68.50;;;;;;5139211;27;20960;-83
2022/04/18 09:31:02;;;;;;;2.97;2.77;;;14.90;66.10;;;;;;5145151;27;21238;-83
2022/04/18 09:33:31;;;;;;;3.33;3.03;;;15.00;66.90;;;;;;5143007;27;20613;-83
2022/04/18 09:36:08;;;;;;;3.20;3.00;;;15.00;66.40;;;;;;5140285;27;20629;-83
2022/04/18 09:38:39;;;;;;;3.33;3.03;;;15.10;66.30;;;;;;5140367;27;21194;-83
2022/04/18 09:41:06;;;;;;;5.00;3.63;;;15.20;66.70;;;;;;5142917;27;20641;-83
2022/04/18 09:43:41;;;;;;;3.50;3.20;;;15.30;67.40;;;;;;5144199;27;20713;-83
2022/04/18 09:46:12;;;;;;;3.70;3.17;;;15.40;67.10;;;;;;5144116;27;20642;-83
2022/04/18 09:48:39;;;;;;;3.93;3.60;;;15.50;65.40;;;;;;5143370;27;20615;-83
2022/04/18 09:51:13;;;;;;;3.80;3.40;;;15.40;64.80;;;;;;5144945;27;20761;-83
2022/04/18 09:53:43;;;;;;;3.07;2.77;;;15.50;66.50;;;;;;5141086;27;21050;-83
2022/04/18 09:56:15;;;;;;;2.90;2.70;;;15.70;62.50;;;;;;5142854;27;20633;-83
2022/04/18 09:58:42;;;;;;;3.27;2.97;;;15.70;61.90;;;;;;5140819;27;20625;-82
2022/04/18 10:01:11;;;;;;;3.20;2.90;;;15.70;60.30;;;;;;5144658;27;20697;-83
2022/04/18 10:03:39;;;;;;;5.17;3.33;;;15.60;60.80;;;;;;5143875;27;20717;-83
2022/04/18 10:06:07;;;;;;;3.20;2.90;;;15.40;59.90;;;;;;5140498;27;20634;-83
2022/04/18 10:08:34;;;;;;;3.90;3.60;;;15.50;63.00;;;;;;5138401;27;20634;-83
2022/04/18 10:11:03;;;;;;;3.47;3.23;;;15.60;61.30;;;;;;5147229;27;20702;-83
2022/04/18 10:13:31;;;;;;;3.93;2.63;;;15.60;59.80;;;;;;5143788;27;21163;-83
2022/04/18 10:15:59;;;;;;;3.90;3.00;;;15.70;62.90;;;;;;5143333;27;20644;-83
2022/04/18 10:18:29;;;;;;;4.00;3.20;;;16.00;60.60;;;;;;5144426;27;20625;-83
2022/04/18 10:21:25;;;;;;;3.70;3.40;;;16.20;59.80;;;;;;5140126;27;21234;-83
2022/04/18 10:24:23;;;;;;;3.60;3.30;;;16.40;59.00;;;;;;5139864;27;20625;-83
2022/04/18 10:27:25;;;;;;;3.40;3.10;;;16.40;57.60;;;;;;5138704;27;20614;-83
2022/04/18 10:29:54;;;;;;;3.20;3.00;;;16.70;58.10;;;;;;5139650;27;21018;-83
2022/04/18 10:32:24;;;;;;;4.43;3.17;;;16.70;56.70;;;;;;5143480;27;20665;-83
2022/04/18 10:34:52;;;;;;;3.43;3.13;;;17.00;57.30;;;;;;5134482;27;20664;-83
2022/04/18 10:37:23;;;;;;;3.10;2.90;;;17.10;57.30;;;;;;5144426;27;20638;-83
2022/04/18 10:39:58;;;;;;;3.83;2.90;;;17.20;57.00;;;;;;5142046;27;21189;-83
2022/04/18 10:42:29;;;;;;;3.67;3.30;;;17.30;55.70;;;;;;5143854;27;20625;-84
2022/04/18 10:45:01;;;;;;;3.07;2.77;;;17.70;56.30;;;;;;5142906;27;20617;-83
2022/04/18 10:48:01;;;;;;;3.60;2.67;;;18.00;56.50;;;;;;5144117;27;20670;-83
2022/04/18 10:50:34;;;;;;;3.70;3.00;;;18.20;57.10;;;;;;5142229;27;21179;-83
2022/04/18 10:53:09;;;;;;;3.97;3.57;;;18.60;57.00;;;;;;5141725;27;21351;-83
2022/04/18 10:55:36;;;;;;;2.93;2.73;;;18.90;56.30;;;;;;5138834;27;20723;-83
2022/04/18 10:58:14;;;;;;;3.23;2.43;;;19.10;54.50;;;;;;5140158;27;20628;-83
2022/04/18 11:00:49;;;;;;;3.60;2.80;;;19.10;54.30;;;;;;5123445;27;21304;-83
2022/04/18 11:03:39;;;;;;;3.30;3.00;;;19.50;54.00;;;;;;5139851;27;21222;-83
2022/04/18 11:06:11;;;;;;;5.83;2.70;;;19.80;53.60;;;;;;5142591;27;20752;-84
2022/04/18 11:08:39;;;;;;;5.47;3.07;;;19.70;52.00;;;;;;5138096;27;20622;-83
2022/04/18 11:11:07;;;;;;;3.07;2.70;;;19.90;51.90;;;;;;5141858;27;20776;-83
2022/04/18 11:13:34;;;;;;;2.93;2.73;;;20.10;50.80;;;;;;5138188;27;20610;-84
2022/04/18 11:16:05;;;;;;;3.57;3.27;;;20.40;51.50;;;;;;5145034;27;21000;-83
2022/04/18 11:18:34;;;;;;;5.27;4.77;;;20.70;50.40;;;;;;5140698;27;20630;-82
2022/04/18 11:21:00;;;;;;;3.47;3.17;;;20.90;48.80;;;;;;5142885;27;20649;-82
2022/04/18 11:23:30;;;;;;;3.43;3.13;;;20.90;48.00;;;;;;5140622;27;20655;-82
2022/04/18 11:25:58;;;;;;;3.30;3.00;;;20.90;48.40;;;;;;5138683;27;20634;-82
2022/04/18 11:28:33;;;;;;;3.17;2.97;;;21.10;48.60;;;;;;5138400;27;20629;-82
2022/04/18 11:30:59;;;;;;;3.47;3.17;;;21.10;48.90;;;;;;5142664;27;21234;-82
2022/04/18 11:33:26;;;;;;;4.03;3.63;;;21.50;48.80;;;;;;5136904;27;20621;-82
2022/04/18 11:36:01;;;;;;;6.50;3.60;;;21.90;48.10;;;;;;5134773;27;20626;-82
2022/04/18 11:38:29;;;;;;;3.50;2.60;;;22.30;48.50;;;;;;5143645;27;20968;-83
2022/04/18 11:40:55;;;;;;;5.00;3.20;;;22.70;47.90;;;;;;5142591;27;21261;-83
2022/04/18 11:43:22;;;;;;;3.13;2.63;;;23.00;46.70;;;;;;5140832;27;20668;-83
2022/04/18 11:45:49;;;;;;;3.07;2.77;;;23.30;46.50;;;;;;5145591;27;20617;-83
2022/04/18 11:48:23;;;;;;;7.30;4.10;;;23.60;46.70;;;;;;5145771;27;20625;-82
2022/04/18 11:50:50;;;;;;;5.07;4.57;;;24.00;46.10;;;;;;5143566;27;20692;-82
2022/04/18 11:53:16;;;;;;;4.00;3.70;;;23.60;43.80;;;;;;5141860;27;20653;-82
2022/04/18 11:55:47;;;;;;;4.07;3.77;;;23.30;42.70;;;;;;5146895;27;20958;-83
2022/04/18 11:58:19;;;;;;;6.30;4.13;;;23.20;41.60;;;;;;5145952;27;20686;-82
2022/04/18 12:09:03;;;;;;;4.03;3.27;;;22.60;42.80;;;;;;5144005;27;20584;-84
2022/04/18 12:11:35;;;;;;;4.70;3.40;;;23.20;44.30;;;;;;5143567;27;20771;-84
2022/04/18 12:14:02;;;;;;;3.93;3.63;;;23.40;41.50;;;;;;5148042;27;20686;-84
2022/04/18 12:16:32;;;;;;;3.90;3.50;;;23.40;41.60;;;;;;5144059;27;20991;-84
2022/04/18 12:18:58;;;;;;;4.33;3.73;;;23.00;41.00;;;;;;5142786;27;21147;-84
2022/04/18 12:21:25;;;;;;;3.80;3.50;;;23.00;41.10;;;;;;5146318;27;21048;-84
2022/04/18 12:23:54;;;;;;;3.43;3.23;;;23.10;40.50;;;;;;5144912;27;20625;-84
2022/04/18 12:26:25;;;;;;;3.30;3.00;;;23.30;41.00;;;;;;5145176;27;20765;-84
2022/04/18 12:28:58;;;;;;;5.50;2.77;;;23.80;40.80;;;;;;5139038;27;20707;-84
2022/04/18 12:31:25;;;;;;;3.80;3.17;;;24.40;41.10;;;;;;5145449;27;21001;-84
2022/04/18 12:33:52;;;;;;;3.23;2.93;;;24.80;41.20;;;;;;5148841;27;20633;-84
2022/04/18 12:36:27;;;;;;;3.30;3.00;;;25.30;41.10;;;;;;5140677;27;20628;-84
2022/04/18 12:38:54;;;;;;;3.57;3.27;;;25.50;39.50;;;;;;5139431;27;20708;-82
2022/04/18 12:41:28;;;;;;;3.17;2.97;;;25.80;40.30;;;;;;5148011;27;20701;-82
2022/04/18 12:43:56;;;;;;;2.93;2.63;;;26.20;38.20;;;;;;5138545;27;20697;-82
2022/04/18 12:46:30;;;;;;;3.50;3.20;;;26.50;38.60;;;;;;5144461;27;20636;-82
2022/04/18 12:48:57;;;;;;;3.13;2.83;;;26.70;37.00;;;;;;5143390;27;20628;-82
2022/04/18 12:51:35;;;;;;;3.00;2.47;;;26.70;37.50;;;;;;5145863;27;21003;-82
2022/04/18 12:54:02;;;;;;;2.97;2.77;;;26.70;37.40;;;;;;5143404;27;20700;-83
2022/04/18 12:56:30;;;;;;;2.90;2.70;;;26.70;37.10;;;;;;5143158;27;20652;-83
2022/04/18 12:59:06;;;;;;;2.87;2.60;;;26.90;37.90;;;;;;5142512;27;20697;-82
2022/04/18 13:01:34;;;;;;;3.00;2.80;;;27.20;36.20;;;;;;5142481;27;20665;-83
2022/04/18 13:04:02;;;;;;;4.70;2.90;;;27.20;36.40;;;;;;5145998;27;20708;-82
2022/04/18 13:06:31;;;;;;;3.67;3.37;;;27.20;35.20;;;;;;5141129;27;21162;-81
2022/04/18 13:08:59;;;;;;;3.50;3.20;;;26.00;35.20;;;;;;5121344;27;20702;-84
2022/04/18 13:11:36;;;;;;;2.70;2.50;;;26.00;35.20;;;;;;5145646;27;20648;-82
2022/04/18 13:14:05;;;;;;;3.37;3.07;;;26.70;35.40;;;;;;5141992;27;20653;-82
2022/04/18 13:16:32;;;;;;;3.10;2.90;;;26.80;34.60;;;;;;5144788;27;20621;-82
2022/04/18 13:19:01;;;;;;;2.87;2.67;;;26.70;34.80;;;;;;5147041;27;20966;-84
2022/04/18 13:21:28;;;;;;;3.30;2.37;;;26.80;35.60;;;;;;5142372;27;20656;-84
2022/04/18 13:23:55;;;;;;;2.50;2.30;;;27.00;34.80;;;;;;5137489;27;20627;-84